Time;durP1;ratioP1;P1;durP2;ratioP2;P2;SDS_P1;SDS_P2;PMS_P1;PMS_P2;Temp;Humidity;BMP_temperature;BMP_pressure;BME280_temperature;BME280_humidity;BME280_pressure;Samples;Min_cycle;Max_cycle;Signal;HPM_P1;HPM_P2
2021/12/29 00:00:30;;;;;;;;;;;;;;;15.15;90.26;101216.38;5053247;28;19996;-57
2021/12/29 00:02:58;;;;;;;;;;;;;;;15.14;90.22;101212.72;5049016;28;19987;-54
2021/12/29 00:05:27;;;;;;;;;;;;;;;15.12;90.27;101203.75;5032687;28;19960;-51
2021/12/29 00:07:54;;;;;;;;;;;;;;;15.10;90.48;101210.78;5033133;28;19956;-54
2021/12/29 00:10:21;;;;;;;;;;;;;;;15.07;90.64;101194.50;5032952;28;20051;-55
2021/12/29 00:12:52;;;;;;;;;;;;;;;15.04;90.75;101198.75;5033137;28;20000;-53
2021/12/29 00:15:20;;;;;;;;;;;;;;;15.02;90.66;101194.56;5032811;28;19927;-55
2021/12/29 00:17:47;;;;;;;;;;;;;;;15.02;90.91;101184.13;5034609;28;19937;-56
2021/12/29 00:20:16;;;;;;;;;;;;;;;15.03;90.91;101194.25;5052111;28;20325;-56
2021/12/29 00:22:43;;;;;;;;;;;;;;;15.02;90.81;101186.13;5052512;28;20020;-55
2021/12/29 00:25:10;;;;;;;;;;;;;;;15.03;90.89;101183.00;5045864;28;20007;-55
2021/12/29 00:27:37;;;;;;;;;;;;;;;15.03;90.97;101187.78;5032620;28;19952;-58
2021/12/29 00:30:05;;;;;;;;;;;;;;;15.02;91.06;101184.13;5032914;28;20024;-57
2021/12/29 00:32:32;;;;;;;;;;;;;;;15.01;91.12;101181.59;5032870;28;20019;-56
2021/12/29 00:34:59;;;;;;;;;;;;;;;15.00;90.84;101177.13;5048673;28;19960;-56
2021/12/29 00:37:25;;;;;;;;;;;;;;;14.98;91.04;101170.97;5042499;28;20015;-57
2021/12/29 00:39:52;;;;;;;;;;;;;;;14.95;91.13;101171.56;5032353;28;20420;-56
2021/12/29 00:42:20;;;;;;;;;;;;;;;14.93;91.46;101169.84;5031899;28;19921;-57
2021/12/29 00:44:46;;;;;;;;;;;;;;;14.91;91.29;101169.34;5032222;28;19952;-55
2021/12/29 00:47:13;;;;;;;;;;;;;;;14.91;91.56;101188.19;5032245;28;20020;-57
2021/12/29 00:49:41;;;;;;;;;;;;;;;14.91;91.56;101174.13;5032281;28;20342;-57
2021/12/29 00:52:09;;;;;;;;;;;;;;;14.91;91.84;101169.34;5032324;28;20016;-57
2021/12/29 00:54:37;;;;;;;;;;;;;;;14.93;91.92;101161.41;5046620;28;20308;-56
2021/12/29 00:57:04;;;;;;;;;;;;;;;14.95;91.95;101168.75;5045819;28;19960;-56
2021/12/29 00:59:31;;;;;;;;;;;;;;;14.95;91.68;101163.97;5032401;28;19968;-56
2021/12/29 01:01:58;;;;;;;;;;;;;;;14.93;91.98;101164.22;5045009;28;20031;-56
2021/12/29 01:04:25;;;;;;;;;;;;;;;14.95;91.84;101168.75;5035303;28;20254;-56
2021/12/29 01:06:52;;;;;;;;;;;;;;;14.97;91.93;101172.91;5038700;28;19971;-56
2021/12/29 01:09:19;;;;;;;;;;;;;;;14.97;91.82;101169.28;5035075;28;19975;-57
2021/12/29 01:11:47;;;;;;;;;;;;;;;14.97;92.00;101177.72;5032740;28;19982;-57
2021/12/29 01:14:21;;;;;;;;;;;;;;;14.97;91.96;101172.91;5032065;28;20019;-57
2021/12/29 01:16:49;;;;;;;;;;;;;;;14.97;92.02;101183.34;5032153;28;19924;-58
2021/12/29 01:19:18;;;;;;;;;;;;;;;14.98;91.88;101173.78;5032135;28;20262;-58
2021/12/29 01:21:47;;;;;;;;;;;;;;;14.98;92.29;101173.78;5032089;28;19920;-58
2021/12/29 01:24:15;;;;;;;;;;;;;;;14.83;91.88;101149.44;5031958;28;20381;-58
2021/12/29 01:26:43;;;;;;;;;;;;;;;14.98;92.01;101188.69;5032010;28;20011;-58
2021/12/29 01:29:12;;;;;;;;;;;;;;;14.98;92.17;101180.25;5032507;28;20296;-56
2021/12/29 01:31:39;;;;;;;;;;;;;;;14.99;92.16;101181.91;5031824;28;20012;-58
2021/12/29 01:34:05;;;;;;;;;;;;;;;15.00;92.21;101174.31;5031760;28;20388;-57
2021/12/29 01:36:33;;;;;;;;;;;;;;;15.00;92.19;101185.56;5031806;28;20015;-58
2021/12/29 01:39:00;;;;;;;;;;;;;;;15.00;92.05;101174.31;5039591;28;20011;-57
2021/12/29 01:41:27;;;;;;;;;;;;;;;14.99;92.18;101175.44;5034595;28;20277;-58
2021/12/29 01:43:54;;;;;;;;;;;;;;;14.99;92.46;101167.00;5031577;28;20443;-58
2021/12/29 01:46:21;;;;;;;;;;;;;;;14.99;92.25;101169.81;5032459;28;20008;-57
2021/12/29 01:48:48;;;;;;;;;;;;;;;14.97;92.27;101166.47;5031664;28;19925;-57
2021/12/29 01:51:18;;;;;;;;;;;;;;;14.97;92.52;101177.72;5031467;28;20020;-58
2021/12/29 01:54:01;;;;;;;;;;;;;;;14.97;92.23;101174.91;5032055;28;19968;-59
2021/12/29 01:56:28;;;;;;;;;;;;;;;14.96;92.62;101174.06;5035403;28;20023;-59
2021/12/29 01:58:55;;;;;;;;;;;;;;;14.98;92.25;101173.78;5038683;28;20015;-58
2021/12/29 02:01:22;;;;;;;;;;;;;;;14.98;92.29;101173.78;5055367;28;20023;-58
2021/12/29 02:03:50;;;;;;;;;;;;;;;14.99;92.32;101178.28;5053476;28;19967;-58
2021/12/29 02:06:17;;;;;;;;;;;;;;;14.99;92.30;101181.06;5040088;28;19960;-58
2021/12/29 02:08:44;;;;;;;;;;;;;;;14.99;92.55;101181.91;5034732;28;20448;-59
2021/12/29 02:11:11;;;;;;;;;;;;;;;14.98;92.61;101191.50;5034876;28;19975;-58
2021/12/29 02:13:39;;;;;;;;;;;;;;;14.98;92.56;101185.88;5035119;28;19967;-59
2021/12/29 02:16:07;;;;;;;;;;;;;;;14.99;92.62;101181.06;5035223;28;20414;-58
2021/12/29 02:18:37;;;;;;;;;;;;;;;14.98;92.60;101177.44;5035405;28;20032;-59
2021/12/29 02:21:05;;;;;;;;;;;;;;;14.99;92.34;101187.53;5035115;28;20007;-59
2021/12/29 02:23:45;;;;;;;;;;;;;;;15.00;92.45;101183.59;5034627;28;20371;-59
2021/12/29 02:26:13;;;;;;;;;;;;;;;15.00;92.33;101182.75;5034660;28;20019;-59
2021/12/29 02:28:43;;;;;;;;;;;;;;;15.01;92.84;101192.84;5034568;28;20376;-59
2021/12/29 02:31:10;;;;;;;;;;;;;;;15.00;92.69;101191.19;5034708;28;19971;-59
2021/12/29 02:33:39;;;;;;;;;;;;;;;14.99;92.73;101186.72;5054744;28;20375;-59
2021/12/29 02:36:06;;;;;;;;;;;;;;;14.99;92.75;101190.34;5053819;28;20011;-59
2021/12/29 02:38:34;;;;;;;;;;;;;;;15.00;92.76;101199.63;5044066;28;20016;-59
2021/12/29 02:41:03;;;;;;;;;;;;;;;15.00;92.51;101194.00;5074481;28;20011;-59
2021/12/29 02:43:32;;;;;;;;;;;;;;;15.01;92.77;101190.03;5073678;28;19920;-58
2021/12/29 02:45:59;;;;;;;;;;;;;;;14.99;92.57;101181.91;5053864;28;19967;-58
2021/12/29 02:48:33;;;;;;;;;;;;;;;15.00;92.77;101182.75;5054295;28;20019;-59
2021/12/29 02:51:00;;;;;;;;;;;;;;;14.98;92.80;101182.22;5054163;28;19970;-58
2021/12/29 02:53:28;;;;;;;;;;;;;;;14.98;92.87;101185.03;5045417;28;19971;-59
2021/12/29 02:55:55;;;;;;;;;;;;;;;14.97;92.86;101192.59;5034455;28;19963;-59
2021/12/29 02:58:23;;;;;;;;;;;;;;;14.99;92.64;101192.31;5034319;28;20012;-59
2021/12/29 03:00:52;;;;;;;;;;;;;;;14.97;93.15;101172.91;5035677;28;20007;-59
2021/12/29 03:03:23;;;;;;;;;;;;;;;14.97;92.93;101183.34;5054025;28;19920;-59
2021/12/29 03:05:50;;;;;;;;;;;;;;;14.97;92.99;101177.72;5053404;28;20023;-59
2021/12/29 03:08:18;;;;;;;;;;;;;;;14.97;93.03;101177.72;5038182;28;19991;-59
2021/12/29 03:10:45;;;;;;;;;;;;;;;14.98;93.09;101179.41;5044357;28;19921;-58
2021/12/29 03:13:12;;;;;;;;;;;;;;;14.96;92.78;101173.22;5053484;28;19975;-58
2021/12/29 03:15:39;;;;;;;;;;;;;;;14.96;93.06;101174.06;5047699;28;20016;-59
2021/12/29 03:18:06;;;;;;;;;;;;;;;14.96;92.82;101170.41;5033634;28;19921;-58
2021/12/29 03:20:33;;;;;;;;;;;;;;;14.97;93.05;101163.66;5033618;28;19972;-59
2021/12/29 03:23:01;;;;;;;;;;;;;;;14.96;93.06;101162.81;5033969;28;20027;-58
2021/12/29 03:25:28;;;;;;;;;;;;;;;14.95;92.88;101163.97;5033468;28;20035;-59
2021/12/29 03:27:58;;;;;;;;;;;;;;;14.93;92.94;101163.41;5034180;28;19996;-58
2021/12/29 03:30:31;;;;;;;;;;;;;;;14.95;93.08;101163.13;5033654;28;19927;-58
2021/12/29 03:33:05;;;;;;;;;;;;;;;14.97;93.07;101164.47;5033831;28;20011;-58
2021/12/29 03:35:35;;;;;;;;;;;;;;;14.98;92.98;101162.53;5033650;28;20016;-58
2021/12/29 03:38:03;;;;;;;;;;;;;;;14.97;92.86;101163.66;5034610;28;20416;-58
2021/12/29 03:40:29;;;;;;;;;;;;;;;14.96;93.17;101164.78;5053518;28;20008;-59
2021/12/29 03:42:57;;;;;;;;;;;;;;;14.97;93.13;101152.41;5053454;28;19960;-58
2021/12/29 03:45:24;;;;;;;;;;;;;;;14.95;92.90;101155.53;5038981;28;19975;-59
2021/12/29 03:47:50;;;;;;;;;;;;;;;14.97;92.99;101155.22;5032940;28;19920;-58
2021/12/29 03:50:17;;;;;;;;;;;;;;;14.96;93.04;101161.97;5033281;28;19968;-58
2021/12/29 03:52:44;;;;;;;;;;;;;;;14.96;92.86;101167.59;5032925;28;19927;-58
2021/12/29 03:55:11;;;;;;;;;;;;;;;14.97;92.81;101163.66;5033008;28;19920;-58
2021/12/29 03:57:39;;;;;;;;;;;;;;;15.00;93.10;101166.72;5032774;28;20057;-58
2021/12/29 04:00:08;;;;;;;;;;;;;;;14.97;93.37;101160.84;5032831;28;20020;-58
2021/12/29 04:02:34;;;;;;;;;;;;;;;14.99;92.90;101158.56;5033482;28;20420;-58
2021/12/29 04:05:02;;;;;;;;;;;;;;;14.99;93.23;101161.38;5032669;28;19951;-58
2021/12/29 04:07:28;;;;;;;;;;;;;;;15.00;93.21;101157.44;5032884;28;20027;-59
2021/12/29 04:09:55;;;;;;;;;;;;;;;14.99;92.99;101158.56;5032432;28;20416;-58
2021/12/29 04:12:23;;;;;;;;;;;;;;;14.98;93.17;101157.75;5033077;28;19943;-58
2021/12/29 04:14:50;;;;;;;;;;;;;;;14.97;93.07;101160.84;5032690;28;20019;-58
2021/12/29 04:17:24;;;;;;;;;;;;;;;14.96;92.95;101140.31;5047177;28;19921;-58
2021/12/29 04:22:36;;;;;;;;;;;;;;;14.96;93.22;101150.72;5052505;28;20024;-58
2021/12/29 04:25:04;;;;;;;;;;;;;;;14.95;93.25;101149.06;5048816;28;20011;-58
2021/12/29 04:27:31;;;;;;;;;;;;;;;14.95;93.22;101157.50;5032688;28;20000;-58
2021/12/29 04:29:57;;;;;;;;;;;;;;;14.92;93.00;101154.13;5032713;28;20007;-58
2021/12/29 04:32:24;;;;;;;;;;;;;;;14.93;93.30;101147.38;5032630;28;20003;-58
2021/12/29 04:34:51;;;;;;;;;;;;;;;14.92;93.30;101148.50;5032887;28;20181;-58
2021/12/29 04:37:17;;;;;;;;;;;;;;;14.94;93.05;101148.22;5032532;28;19929;-58
2021/12/29 04:39:44;;;;;;;;;;;;;;;14.96;93.09;101142.28;5033565;28;20344;-58
2021/12/29 04:42:11;;;;;;;;;;;;;;;14.93;93.09;101150.16;5037467;28;20008;-58
2021/12/29 04:44:37;;;;;;;;;;;;;;;14.94;93.00;101145.41;5032205;28;20008;-58
2021/12/29 04:47:07;;;;;;;;;;;;;;;14.93;93.30;101143.72;5031277;28;20019;-58
2021/12/29 04:49:40;;;;;;;;;;;;;;;14.93;93.29;101143.72;5031955;28;19921;-58
2021/12/29 04:52:08;;;;;;;;;;;;;;;14.93;93.10;101138.09;5048156;28;20428;-57
2021/12/29 04:54:35;;;;;;;;;;;;;;;14.91;93.00;101149.66;5052153;28;20004;-58
2021/12/29 04:57:01;;;;;;;;;;;;;;;14.93;93.05;101147.38;5052009;28;19960;-57
2021/12/29 04:59:28;;;;;;;;;;;;;;;14.95;93.17;101151.88;5032679;28;20015;-57
2021/12/29 05:01:55;;;;;;;;;;;;;;;14.97;93.49;101160.84;5031963;28;20004;-57
2021/12/29 05:04:30;;;;;;;;;;;;;;;14.97;93.07;101155.22;5031762;28;19928;-57
2021/12/29 05:09:42;;;;;;;;;;;;;;;14.95;92.95;101141.47;5041860;28;20396;-56
2021/12/29 05:12:09;;;;;;;;;;;;;;;14.93;93.21;101144.53;5051801;28;20416;-57
2021/12/29 05:14:35;;;;;;;;;;;;;;;14.95;93.28;101140.63;5051797;28;20016;-56
2021/12/29 05:17:03;;;;;;;;;;;;;;;14.95;93.18;101146.25;5033559;28;20016;-57
2021/12/29 05:19:30;;;;;;;;;;;;;;;14.93;93.27;101138.09;5031785;28;20008;-56
2021/12/29 05:21:57;;;;;;;;;;;;;;;14.93;93.08;101144.53;5036241;28;20071;-56
2021/12/29 05:24:23;;;;;;;;;;;;;;;14.95;93.25;101146.25;5045095;28;19999;-57
2021/12/29 05:26:51;;;;;;;;;;;;;;;14.93;93.02;101138.09;5040229;28;20372;-58
2021/12/29 05:29:17;;;;;;;;;;;;;;;14.92;93.40;101137.25;5032996;28;19987;-57
2021/12/29 05:31:44;;;;;;;;;;;;;;;14.91;93.32;101149.66;5035584;28;19928;-57
2021/12/29 05:34:11;;;;;;;;;;;;;;;14.91;93.33;101146.84;5035977;28;20000;-58
2021/12/29 05:36:38;;;;;;;;;;;;;;;14.90;93.25;101145.13;5035607;28;20484;-57
2021/12/29 05:39:05;;;;;;;;;;;;;;;14.91;93.27;101151.63;5036111;28;19921;-56
2021/12/29 05:41:33;;;;;;;;;;;;;;;14.91;93.27;101148.81;5055043;28;19975;-56
2021/12/29 05:44:00;;;;;;;;;;;;;;;14.94;93.40;101156.66;5042431;28;20106;-56
2021/12/29 05:46:26;;;;;;;;;;;;;;;14.93;93.31;101154.97;5035410;28;19921;-56
2021/12/29 05:48:54;;;;;;;;;;;;;;;14.94;93.28;101153.84;5035537;28;20227;-56
2021/12/29 05:51:20;;;;;;;;;;;;;;;14.95;93.49;101152.72;5035398;28;19998;-56
2021/12/29 05:53:47;;;;;;;;;;;;;;;14.96;93.28;101156.34;5035281;28;19960;-56
2021/12/29 05:56:14;;;;;;;;;;;;;;;14.97;93.16;101155.22;5051207;28;19951;-54
2021/12/29 05:58:40;;;;;;;;;;;;;;;14.95;93.41;101157.50;5054225;28;20398;-55
2021/12/29 06:01:09;;;;;;;;;;;;;;;14.92;93.24;101153.28;5035644;28;20008;-56
2021/12/29 06:03:37;;;;;;;;;;;;;;;14.92;93.29;101153.28;5035240;28;19921;-54
2021/12/29 06:06:03;;;;;;;;;;;;;;;14.90;93.28;101155.56;5035184;28;20003;-54
2021/12/29 06:08:30;;;;;;;;;;;;;;;14.93;93.33;101161.41;5034937;28;19921;-55
2021/12/29 06:10:57;;;;;;;;;;;;;;;14.93;93.19;101158.59;5035119;28;20325;-55
2021/12/29 06:13:23;;;;;;;;;;;;;;;14.93;93.27;101152.97;5033662;28;20020;-55
2021/12/29 06:15:50;;;;;;;;;;;;;;;14.91;93.13;101149.66;5034935;28;20015;-54
2021/12/29 06:18:17;;;;;;;;;;;;;;;14.89;93.30;101148.25;5035353;28;19925;-54
2021/12/29 06:20:43;;;;;;;;;;;;;;;14.87;93.31;101154.19;5034800;28;20387;-55
2021/12/29 06:23:13;;;;;;;;;;;;;;;14.87;93.20;101159.81;5034698;28;19971;-55
2021/12/29 06:25:40;;;;;;;;;;;;;;;14.89;93.36;101149.09;5034394;28;19921;-55
2021/12/29 06:28:07;;;;;;;;;;;;;;;14.89;93.30;101146.28;5047327;28;20452;-55
2021/12/29 06:30:33;;;;;;;;;;;;;;;14.87;93.31;101159.81;5053188;28;20365;-54
2021/12/29 06:33:00;;;;;;;;;;;;;;;14.84;93.46;101154.78;5054597;28;19921;-54
2021/12/29 06:35:27;;;;;;;;;;;;;;;14.82;93.29;101161.81;5052645;28;19964;-54
2021/12/29 06:37:54;;;;;;;;;;;;;;;14.78;93.47;101152.31;5054568;28;20376;-55
2021/12/29 06:40:20;;;;;;;;;;;;;;;14.78;93.38;101152.31;5050686;28;20023;-55
2021/12/29 06:42:47;;;;;;;;;;;;;;;14.79;93.37;101154.81;5034183;28;20374;-55
2021/12/29 06:45:14;;;;;;;;;;;;;;;14.78;93.22;101147.50;5040560;28;19959;-55
2021/12/29 06:47:40;;;;;;;;;;;;;;;14.78;93.42;101141.06;5053964;28;19921;-58
2021/12/29 06:50:07;;;;;;;;;;;;;;;14.79;93.22;101137.94;5054258;28;19943;-55
2021/12/29 06:52:34;;;;;;;;;;;;;;;14.82;93.54;101145.78;5036439;28;19928;-55
2021/12/29 06:55:01;;;;;;;;;;;;;;;14.83;93.47;101150.25;5034289;28;20430;-55
2021/12/29 06:57:28;;;;;;;;;;;;;;;14.85;93.27;101141.56;5034052;28;20404;-55
2021/12/29 06:59:55;;;;;;;;;;;;;;;14.83;93.15;101144.63;5033811;28;20015;-55
2021/12/29 07:02:23;;;;;;;;;;;;;;;14.87;93.50;101148.56;5034051;28;19975;-55
2021/12/29 07:04:50;;;;;;;;;;;;;;;14.88;93.39;101138.16;5065778;28;19964;-56
2021/12/29 07:07:20;;;;;;;;;;;;;;;14.87;93.33;101144.88;5045833;28;20441;-55
2021/12/29 07:09:47;;;;;;;;;;;;;;;14.86;93.40;101144.06;5053166;28;20383;-56
2021/12/29 07:12:13;;;;;;;;;;;;;;;14.86;93.11;101141.25;5034476;28;20428;-56
2021/12/29 07:14:40;;;;;;;;;;;;;;;14.88;93.38;101153.03;5033884;28;19959;-55
2021/12/29 07:17:07;;;;;;;;;;;;;;;14.89;93.41;101153.88;5033550;28;19921;-56
2021/12/29 07:19:34;;;;;;;;;;;;;;;14.89;93.16;101163.16;5033473;28;20011;-56
2021/12/29 07:22:01;;;;;;;;;;;;;;;14.91;93.41;101155.28;5033411;28;20403;-56
2021/12/29 07:24:30;;;;;;;;;;;;;;;14.91;93.00;101152.47;5034324;28;19989;-55
2021/12/29 07:26:57;;;;;;;;;;;;;;;14.93;93.58;101154.97;5033311;28;19964;-56
2021/12/29 07:29:24;;;;;;;;;;;;;;;14.92;93.30;101154.13;5033531;28;20040;-56
2021/12/29 07:31:53;;;;;;;;;;;;;;;14.91;93.33;101160.91;5035680;28;20007;-56
2021/12/29 07:34:20;;;;;;;;;;;;;;;14.91;92.99;101163.72;5052941;28;19931;-56
2021/12/29 07:36:48;;;;;;;;;;;;;;;14.89;93.38;101165.97;5053198;28;19964;-55
2021/12/29 07:39:15;;;;;;;;;;;;;;;14.88;93.30;101174.72;5047658;28;19968;-53
2021/12/29 07:41:43;;;;;;;;;;;;;;;14.87;93.09;101173.00;5033540;28;19921;-55
2021/12/29 07:44:12;;;;;;;;;;;;;;;14.85;93.33;101176.13;5033332;28;20012;-54
2021/12/29 07:46:42;;;;;;;;;;;;;;;14.84;93.33;101174.47;5032996;28;20436;-54
2021/12/29 07:49:08;;;;;;;;;;;;;;;14.83;93.19;101184.00;5032843;28;19921;-55
2021/12/29 07:51:35;;;;;;;;;;;;;;;14.80;93.25;101170.56;5032982;28;20000;-55
2021/12/29 07:54:02;;;;;;;;;;;;;;;14.78;93.10;101175.63;5032804;28;20015;-57
2021/12/29 07:56:29;;;;;;;;;;;;;;;14.76;93.49;101186.31;5043879;28;19920;-56
2021/12/29 07:58:55;;;;;;;;;;;;;;;14.77;93.43;101185.22;5051838;28;20132;-56
2021/12/29 08:01:22;;;;;;;;;;;;;;;14.75;93.21;101183.81;5051897;28;19920;-57
2021/12/29 08:03:49;;;;;;;;;;;;;;;14.73;93.32;101188.88;5052535;28;19929;-57
2021/12/29 08:06:17;;;;;;;;;;;;;;;14.75;93.44;101186.63;5052726;28;19920;-57
2021/12/29 08:08:43;;;;;;;;;;;;;;;14.75;93.23;101198.69;5052605;28;20268;-57
2021/12/29 08:11:10;;;;;;;;;;;;;;;14.75;93.54;101193.09;5043732;28;19928;-55
2021/12/29 08:13:37;;;;;;;;;;;;;;;14.73;93.20;101195.34;5032619;28;19972;-54
2021/12/29 08:16:05;;;;;;;;;;;;;;;14.78;93.67;101194.47;5033191;28;19983;-55
2021/12/29 08:18:31;;;;;;;;;;;;;;;14.79;93.60;101191.34;5032576;28;19964;-55
2021/12/29 08:20:58;;;;;;;;;;;;;;;14.78;93.48;101200.94;5032430;28;19925;-56
2021/12/29 08:23:24;;;;;;;;;;;;;;;14.78;93.20;101197.28;5033635;28;20321;-54
2021/12/29 08:25:51;;;;;;;;;;;;;;;14.78;93.36;101203.75;5052163;28;20003;-54
2021/12/29 08:28:18;;;;;;;;;;;;;;;14.77;93.28;101204.88;5052014;28;19972;-54
2021/12/29 08:30:44;;;;;;;;;;;;;;;14.77;93.64;101202.06;5049200;28;20019;-55
2021/12/29 08:33:11;;;;;;;;;;;;;;;14.78;93.55;101209.38;5032756;28;19927;-54
2021/12/29 08:35:38;;;;;;;;;;;;;;;14.81;93.57;101205.97;5032088;28;20015;-55
2021/12/29 08:38:04;;;;;;;;;;;;;;;14.82;93.34;101213.28;5043710;28;19921;-54
2021/12/29 08:40:31;;;;;;;;;;;;;;;14.82;93.53;101216.06;5050802;28;19968;-55
2021/12/29 08:43:01;;;;;;;;;;;;;;;14.82;93.52;101221.69;5051953;28;19975;-55
2021/12/29 08:45:28;;;;;;;;;;;;;;;14.82;93.13;101223.69;5051962;28;20412;-57
2021/12/29 08:47:58;;;;;;;;;;;;;;;14.85;93.50;101231.53;5042630;28;19957;-54
2021/12/29 08:50:31;;;;;;;;;;;;;;;14.88;93.74;101233.75;5032723;28;20024;-54
2021/12/29 08:52:59;;;;;;;;;;;;;;;14.91;93.53;101228.38;5032153;28;19971;-54
2021/12/29 08:55:26;;;;;;;;;;;;;;;14.92;93.09;101232.88;5032091;28;19964;-53
2021/12/29 08:57:53;;;;;;;;;;;;;;;14.92;93.30;101248.91;5032310;28;20024;-51
2021/12/29 09:00:20;;;;;;;;;;;;;;;14.95;93.42;101241.88;5031832;28;20315;-56
2021/12/29 09:02:47;;;;;;;;;;;;;;;14.94;93.49;101249.47;5031982;28;19972;-56
2021/12/29 09:05:16;;;;;;;;;;;;;;;14.95;93.32;101258.75;5034873;28;19929;-55
2021/12/29 09:07:44;;;;;;;;;;;;;;;14.99;93.41;101254.22;5036792;28;20340;-56
2021/12/29 09:10:11;;;;;;;;;;;;;;;15.07;93.62;101262.00;5035936;28;20451;-57
2021/12/29 09:12:38;;;;;;;;;;;;;;;15.11;93.74;101252.72;5035833;28;19964;-56
2021/12/29 09:15:05;;;;;;;;;;;;;;;15.16;93.27;101266.72;5035959;28;20004;-56
2021/12/29 09:17:32;;;;;;;;;;;;;;;15.20;93.48;101271.75;5047693;28;19983;-54
2021/12/29 09:20:01;;;;;;;;;;;;;;;15.20;93.28;101271.75;5055704;28;19927;-55
2021/12/29 09:22:29;;;;;;;;;;;;;;;15.21;93.45;101282.69;5052453;28;20004;-56
2021/12/29 09:24:57;;;;;;;;;;;;;;;15.20;93.19;101278.22;5036319;28;20364;-55
2021/12/29 09:27:24;;;;;;;;;;;;;;;15.23;93.44;101276.78;5035266;28;20226;-54
2021/12/29 09:29:55;;;;;;;;;;;;;;;15.25;93.27;101289.44;5035421;28;20015;-55
2021/12/29 09:32:22;;;;;;;;;;;;;;;15.28;93.36;101296.44;5035816;28;20020;-55
2021/12/29 09:34:50;;;;;;;;;;;;;;;15.32;93.24;101292.75;5035694;28;20338;-54
2021/12/29 09:37:17;;;;;;;;;;;;;;;15.32;93.29;101298.38;5035493;28;20011;-54
2021/12/29 09:39:44;;;;;;;;;;;;;;;15.32;93.35;101301.19;5035661;28;19964;-55
2021/12/29 09:42:11;;;;;;;;;;;;;;;15.35;93.45;101309.06;5038529;28;20012;-53
2021/12/29 09:44:39;;;;;;;;;;;;;;;15.43;93.53;101309.56;5047333;28;19920;-55
2021/12/29 09:47:08;;;;;;;;;;;;;;;15.45;93.15;101313.72;5055399;28;20003;-54
2021/12/29 09:49:35;;;;;;;;;;;;;;;15.47;93.09;101310.63;5055153;28;19928;-55
2021/12/29 09:52:02;;;;;;;;;;;;;;;15.45;93.15;101319.38;5052309;28;20007;-52
2021/12/29 09:54:29;;;;;;;;;;;;;;;15.44;92.99;101325.31;5035048;28;20352;-54
2021/12/29 09:56:55;;;;;;;;;;;;;;;15.44;93.02;101322.50;5035078;28;20023;-54
2021/12/29 09:59:23;;;;;;;;;;;;;;;15.39;92.92;101326.19;5035653;28;20016;-54
2021/12/29 10:01:50;;;;;;;;;;;;;;;15.43;93.09;101326.44;5035177;28;20312;-54
2021/12/29 10:04:17;;;;;;;;;;;;;;;15.48;93.00;101332.00;5035201;28;19921;-54
2021/12/29 10:06:45;;;;;;;;;;;;;;;15.50;93.03;101333.41;5035192;28;19974;-54
2021/12/29 10:09:13;;;;;;;;;;;;;;;15.51;92.91;101334.25;5035216;28;20016;-54
2021/12/29 10:11:40;;;;;;;;;;;;;;;15.54;92.88;101328.03;5051318;28;19925;-52
2021/12/29 10:14:09;;;;;;;;;;;;;;;15.54;92.84;101328.03;5042398;28;20329;-54
2021/12/29 10:16:36;;;;;;;;;;;;;;;15.54;93.00;101337.31;5034285;28;20328;-53
2021/12/29 10:19:07;;;;;;;;;;;;;;;15.51;92.77;101343.53;5035378;28;20272;-54
2021/12/29 10:21:35;;;;;;;;;;;;;;;15.54;92.79;101339.28;5034826;28;19927;-55
2021/12/29 10:24:03;;;;;;;;;;;;;;;15.56;92.90;101337.03;5034919;28;19967;-54
2021/12/29 10:26:38;;;;;;;;;;;;;;;15.53;92.76;101334.81;5034904;28;19987;-55
2021/12/29 10:29:07;;;;;;;;;;;;;;;15.52;92.61;101347.19;5034509;28;19944;-55
2021/12/29 10:31:42;;;;;;;;;;;;;;;15.54;92.73;101342.09;5035306;28;19928;-55
2021/12/29 10:34:13;;;;;;;;;;;;;;;15.53;92.76;101337.63;5034706;28;19928;-54
2021/12/29 10:36:46;;;;;;;;;;;;;;;15.51;92.62;101340.72;5035042;28;20012;-56
2021/12/29 10:39:16;;;;;;;;;;;;;;;15.52;93.01;101336.78;5034636;28;20345;-54
2021/12/29 10:42:02;;;;;;;;;;;;;;;15.60;92.90;101340.94;5034741;28;19927;-55
2021/12/29 10:44:37;;;;;;;;;;;;;;;15.60;92.52;101340.94;5039167;28;20013;-56
2021/12/29 10:47:15;;;;;;;;;;;;;;;15.62;92.75;101345.13;5035338;28;20024;-55
2021/12/29 10:49:52;;;;;;;;;;;;;;;15.66;93.13;101348.22;5047784;28;20007;-56
2021/12/29 10:52:29;;;;;;;;;;;;;;;15.70;92.66;101349.31;5036606;28;20011;-56
2021/12/29 10:54:56;;;;;;;;;;;;;;;15.71;93.01;101334.09;5034650;28;20321;-55
2021/12/29 10:57:22;;;;;;;;;;;;;;;15.74;92.61;101349.56;5034516;28;19920;-56
2021/12/29 10:59:52;;;;;;;;;;;;;;;15.75;92.76;101345.59;5034451;28;20337;-54
2021/12/29 11:02:24;;;;;;;;;;;;;;;15.77;92.72;101347.00;5034238;28;20136;-56
2021/12/29 11:04:55;;;;;;;;;;;;;;;15.84;92.67;101339.03;5034332;28;19924;-56
2021/12/29 11:07:29;;;;;;;;;;;;;;;15.97;92.92;101342.31;5034963;28;19944;-56
2021/12/29 11:10:06;;;;;;;;;;;;;;;16.33;93.50;101340.75;5034264;28;19967;-57
2021/12/29 11:12:42;;;;;;;;;;;;;;;16.71;92.99;101340.81;5034334;28;20137;-56
2021/12/29 11:15:22;;;;;;;;;;;;;;;16.86;92.58;101342.63;5034220;28;20420;-55
2021/12/29 11:17:49;;;;;;;;;;;;;;;16.86;92.24;101344.63;5034044;28;19924;-56
2021/12/29 11:20:17;;;;;;;;;;;;;;;16.66;91.65;101338.09;5049346;28;19971;-54
2021/12/29 11:22:44;;;;;;;;;;;;;;;16.49;91.87;101344.22;5034436;28;19986;-57
2021/12/29 11:25:10;;;;;;;;;;;;;;;16.41;91.85;101346.84;5034008;28;20020;-57
2021/12/29 11:27:37;;;;;;;;;;;;;;;16.34;91.88;101345.25;5033146;28;19967;-56
2021/12/29 11:30:11;;;;;;;;;;;;;;;16.32;92.10;101344.72;5033577;28;19956;-56
2021/12/29 11:32:39;;;;;;;;;;;;;;;16.30;92.27;101341.34;5033921;28;20059;-55
2021/12/29 11:35:12;;;;;;;;;;;;;;;16.22;92.25;101344.81;5033581;28;20020;-56
2021/12/29 11:37:41;;;;;;;;;;;;;;;16.14;92.01;101348.31;5033871;28;19975;-56
2021/12/29 11:40:09;;;;;;;;;;;;;;;16.09;91.76;101349.19;5034173;28;20384;-56
2021/12/29 11:42:36;;;;;;;;;;;;;;;15.96;91.50;101346.25;5033480;28;20407;-55
2021/12/29 11:45:03;;;;;;;;;;;;;;;15.87;92.05;101338.44;5033504;28;19964;-55
2021/12/29 11:47:30;;;;;;;;;;;;;;;15.95;92.38;101338.94;5033100;28;19975;-54
2021/12/29 11:49:56;;;;;;;;;;;;;;;16.06;92.70;101329.22;5033420;28;20016;-56
2021/12/29 11:52:42;;;;;;;;;;;;;;;15.99;91.90;101340.84;5036367;28;19967;-56
2021/12/29 11:55:15;;;;;;;;;;;;;;;15.94;92.14;101342.91;5053171;28;20015;-56
2021/12/29 11:57:42;;;;;;;;;;;;;;;16.02;92.45;101330.97;5042953;28;19979;-52
2021/12/29 12:00:09;;;;;;;;;;;;;;;16.12;92.47;101328.03;5033091;28;19956;-55
2021/12/29 12:02:35;;;;;;;;;;;;;;;16.27;92.81;101322.25;5033164;28;19964;-54
2021/12/29 12:05:04;;;;;;;;;;;;;;;16.43;92.56;101313.56;5033388;28;20344;-55
2021/12/29 12:07:31;;;;;;;;;;;;;;;16.45;92.25;101325.41;5033175;28;20032;-55
2021/12/29 12:10:01;;;;;;;;;;;;;;;16.53;92.66;101310.63;5033817;28;20004;-54
2021/12/29 12:12:35;;;;;;;;;;;;;;;16.63;92.55;101315.28;5033184;28;20018;-53
2021/12/29 12:15:06;;;;;;;;;;;;;;;16.52;92.04;101320.22;5033546;28;20019;-55
2021/12/29 12:17:33;;;;;;;;;;;;;;;16.31;91.21;101320.50;5031733;28;20012;-54
2021/12/29 12:20:03;;;;;;;;;;;;;;;16.26;91.61;101323.34;5032828;28;20018;-50
2021/12/29 12:22:40;;;;;;;;;;;;;;;16.31;91.56;101314.84;5033130;28;20016;-54
2021/12/29 12:25:08;;;;;;;;;;;;;;;16.33;91.67;101315.38;5033105;28;20016;-54
2021/12/29 12:27:36;;;;;;;;;;;;;;;16.34;91.43;101322.72;5032369;28;19921;-55
2021/12/29 12:30:15;;;;;;;;;;;;;;;16.33;91.40;101315.38;5032607;28;20027;-53
2021/12/29 12:32:49;;;;;;;;;;;;;;;16.43;91.63;101305.13;5033203;28;20007;-54
2021/12/29 12:35:31;;;;;;;;;;;;;;;16.50;91.59;101311.22;5032561;28;19921;-53
2021/12/29 12:37:59;;;;;;;;;;;;;;;16.61;91.26;101307.13;5032680;28;19956;-53
2021/12/29 12:40:30;;;;;;;;;;;;;;;16.75;91.31;101308.09;5031801;28;20301;-53
2021/12/29 12:43:10;;;;;;;;;;;;;;;17.03;91.59;101299.78;5032344;28;20078;-55
2021/12/29 12:45:39;;;;;;;;;;;;;;;16.99;89.39;101298.69;5034877;28;19968;-53